Islamorada, FL

8:39 PM EST on February 11, 2016 (GMT -0500)
APRSWXNET | | Change Station
CLOSE
Current Station
Personal Weather Station
Location: Islamorada, FL
Elevation: 15 ft
Nearby Weather Stations

Elev 15 ft 24.92 °N, 80.64 °W | Updated 25 minutes ago

Clear
Clear
64.0 °F
Feels Like 64.0 °F
N
1.0
Wind Variable Wind from NE
Gusts 10.0 mph

Today
High -- | Low -- °F
--% Chance of Precip.
Yesterday
High -- | Low -- °F
Precip. -- in
Pressure 30.29 in
Visibility 10.0 miles
Clouds Clear
Dew Point 57.0 °F
Humidity 77%
Rainfall in
Snow Depth Not available.
6:59 AM 6:14 PM
Waxing Crescent, 16% visible
METAR KHST 120058Z AUTO 02006KT 10SM CLR 15/09 A3028 RMK AO2 SLP257 T01490094
Pressure 30.29 in
Visibility 10.0 miles
Clouds Clear
Dew Point 57.0 °F
Humidity 77%
Rainfall in
Snow Depth Not available.
6:59 AM 6:14 PM
Waxing Crescent, 16% visible
METAR KHST 120058Z AUTO 02006KT 10SM CLR 15/09 A3028 RMK AO2 SLP257 T01490094

10-Day Weather Forecast

Almanac

Astronomy

Feb. 11, 2016 Rise Set
Actual Time
Civil Twilight
Nautical Twilight
Astronomical Twilight
Moon
Length of Visible Light
Length of Day
Tomorrow will be .
, % of the Moon is Illuminated

Today's Extremes

State Highs State Lows

Community

WunderPhotos

Upload Photos

1,892,207 photos uploaded!

WunderBlog® & News

Nearby

Air Quality

  Air Quality AQ Index Pollutant
Not available.

Snow Depth

Station Depth Elevation

Earthquake Activity

City Distance Mag. Time & Date
Minimum magnitude displayed is 2.5.

Coastal Water Temperatures

Place Temperature

Stations

Nearby Weather Stations

Station Location Temp. Windchill Dew Point Humidity Wind Precip. Elev Updated Type
                   

Watches & Warnings

There are currently no watches in effect.